createdAt,value
2022-10-12T00:01:01.215Z,15.05
2022-10-12T00:02:03.185Z,15.70
2022-10-12T00:03:06.109Z,14.23
2022-10-12T00:04:08.100Z,14.13
2022-10-12T00:05:10.018Z,14.75
2022-10-12T00:06:15.092Z,15.43
2022-10-12T00:07:17.049Z,15.10
2022-10-12T00:08:19.071Z,15.02
2022-10-12T00:09:20.636Z,16.30
2022-10-12T00:10:22.621Z,16.30
2022-10-12T00:11:27.202Z,16.42
2022-10-12T00:12:30.001Z,16.63
2022-10-12T00:13:32.105Z,16.90
2022-10-12T00:14:37.797Z,15.35
2022-10-12T00:15:40.790Z,16.60
2022-10-12T00:16:42.622Z,17.13
2022-10-12T00:17:44.245Z,16.65
2022-10-12T00:18:50.370Z,17.13
2022-10-12T00:19:52.091Z,17.55
2022-10-12T00:21:05.614Z,17.33
2022-10-12T00:22:09.302Z,16.70
2022-10-12T00:23:12.560Z,15.23
2022-10-12T00:24:14.188Z,16.27
2022-10-12T00:25:16.270Z,15.52
2022-10-12T00:26:20.752Z,16.40
2022-10-12T00:27:23.080Z,17.33
2022-10-12T00:28:25.000Z,16.52
2022-10-12T00:29:26.900Z,15.80
2022-10-12T00:30:28.814Z,16.42
2022-10-12T00:31:31.591Z,17.45
2022-10-12T00:32:35.714Z,17.13
2022-10-12T00:33:40.566Z,15.98
2022-10-12T00:34:42.252Z,16.92
2022-10-12T00:35:44.941Z,16.30
2022-10-12T00:36:46.632Z,16.90
2022-10-12T00:37:48.231Z,17.55
2022-10-12T00:38:53.496Z,17.90
2022-10-12T00:39:55.401Z,17.55
2022-10-12T00:40:56.976Z,15.82
2022-10-12T00:41:58.720Z,17.73
2022-10-12T00:43:00.377Z,15.85
2022-10-12T00:44:02.132Z,17.38
2022-10-12T00:45:04.969Z,16.95
2022-10-12T00:46:30.146Z,16.75
2022-10-12T00:47:38.368Z,17.48
2022-10-12T00:48:42.291Z,14.75
2022-10-12T00:49:48.109Z,14.85
2022-10-12T00:50:50.059Z,15.13
2022-10-12T00:51:56.338Z,15.13
2022-10-12T00:53:00.723Z,15.45
2022-10-12T00:54:06.708Z,14.50
2022-10-12T00:55:12.940Z,14.57
2022-10-12T00:56:22.269Z,13.57
2022-10-12T00:57:24.740Z,13.65
2022-10-12T00:58:31.217Z,14.43
2022-10-12T00:59:48.534Z,14.85
2022-10-12T01:00:51.355Z,15.35
2022-10-12T01:01:53.792Z,13.18
2022-10-12T01:02:57.148Z,15.52
2022-10-12T01:04:01.209Z,14.65
2022-10-12T01:05:04.108Z,15.10
2022-10-12T01:06:07.131Z,14.27
2022-10-12T01:07:09.201Z,15.05
2022-10-12T01:08:11.810Z,16.25
2022-10-12T01:09:15.480Z,14.85
2022-10-12T01:10:17.170Z,14.52
2022-10-12T01:11:18.835Z,15.05
2022-10-12T01:12:23.974Z,15.27
2022-10-12T01:13:27.279Z,13.85
2022-10-12T01:14:30.297Z,14.85
2022-10-12T01:15:42.604Z,15.95
2022-10-12T01:16:51.473Z,16.52
2022-10-12T01:18:29.817Z,14.38
2022-10-12T01:19:43.588Z,14.30
2022-10-12T01:20:54.460Z,14.20
2022-10-12T01:22:03.112Z,14.95
2022-10-12T01:23:26.172Z,15.95
2022-10-12T01:24:45.404Z,13.45
2022-10-12T01:26:25.414Z,15.10
2022-10-12T01:27:46.302Z,15.02
2022-10-12T01:28:54.365Z,14.20
2022-10-12T01:30:21.755Z,14.85
2022-10-12T01:31:32.541Z,15.23
2022-10-12T01:32:42.550Z,15.05
2022-10-12T01:33:51.327Z,15.10
2022-10-12T01:35:02.182Z,14.60
2022-10-12T01:36:19.433Z,14.93
2022-10-12T01:37:43.364Z,14.85
2022-10-12T01:39:00.421Z,16.20
2022-10-12T01:40:08.054Z,13.55
2022-10-12T01:41:20.449Z,15.82
2022-10-12T01:42:33.899Z,13.75
2022-10-12T01:43:44.524Z,13.50
2022-10-12T01:44:46.907Z,13.98
2022-10-12T01:45:48.624Z,13.63
2022-10-12T01:46:51.536Z,14.18
2022-10-12T01:47:58.937Z,14.35
2022-10-12T01:49:02.377Z,14.52
2022-10-12T01:50:07.317Z,14.48
2022-10-12T01:51:11.549Z,14.68
2022-10-12T01:52:25.673Z,14.45
2022-10-12T01:53:43.251Z,14.70
2022-10-12T01:55:00.178Z,13.32
2022-10-12T01:56:17.899Z,13.40
2022-10-12T01:57:25.044Z,15.20
2022-10-12T01:58:38.271Z,14.80
2022-10-12T01:59:40.493Z,14.68
2022-10-12T02:00:55.662Z,14.32
2022-10-12T02:02:00.601Z,15.52
2022-10-12T02:03:27.181Z,15.05
2022-10-12T02:04:33.358Z,14.40
2022-10-12T02:05:49.784Z,15.32
2022-10-12T02:07:01.513Z,15.00
2022-10-12T02:08:15.770Z,15.65
2022-10-12T02:09:32.643Z,15.10
2022-10-12T02:10:57.766Z,14.85
2022-10-12T02:12:05.761Z,15.63
2022-10-12T02:13:12.343Z,14.82
2022-10-12T02:14:22.046Z,16.52
2022-10-12T02:15:27.026Z,15.77
2022-10-12T02:16:34.546Z,15.55
2022-10-12T02:17:37.537Z,15.45
2022-10-12T02:18:44.833Z,16.17
2022-10-12T02:19:51.242Z,17.55
2022-10-12T02:20:55.763Z,16.25
2022-10-12T02:22:05.815Z,16.65
2022-10-12T02:23:11.700Z,15.40
2022-10-12T02:24:16.425Z,17.05
2022-10-12T02:25:22.046Z,16.38
2022-10-12T02:26:24.262Z,17.42
2022-10-12T02:27:29.275Z,16.65
2022-10-12T02:28:34.660Z,17.75
2022-10-12T02:29:45.802Z,15.88
2022-10-12T02:31:28.637Z,16.90
2022-10-12T02:32:44.897Z,16.70
2022-10-12T02:33:55.266Z,17.88
2022-10-12T02:35:14.215Z,16.38
2022-10-12T02:36:36.357Z,17.05
2022-10-12T02:37:46.231Z,17.00
2022-10-12T02:39:07.465Z,17.27
2022-10-12T02:40:39.581Z,16.77
2022-10-12T02:41:47.861Z,16.48
2022-10-12T02:43:16.119Z,16.08
2022-10-12T02:44:26.557Z,16.35
2022-10-12T02:45:29.716Z,16.40
2022-10-12T02:46:34.812Z,17.02
2022-10-12T02:47:37.758Z,16.90
2022-10-12T02:48:41.513Z,17.65
2022-10-12T02:49:46.684Z,17.95
2022-10-12T02:50:50.350Z,16.10
2022-10-12T02:51:52.943Z,16.70
2022-10-12T02:52:55.578Z,16.45
2022-10-12T02:53:59.662Z,16.85
2022-10-12T02:55:01.468Z,16.33
2022-10-12T02:56:06.237Z,16.70
2022-10-12T02:57:09.443Z,16.50
2022-10-12T02:58:11.485Z,17.70
2022-10-12T02:59:15.525Z,15.57
2022-10-12T03:00:17.736Z,16.55
2022-10-12T03:01:19.858Z,13.85
2022-10-12T03:02:22.648Z,15.20
2022-10-12T03:03:24.425Z,14.20
2022-10-12T03:04:26.064Z,14.48
2022-10-12T03:05:28.209Z,14.30
2022-10-12T03:06:29.767Z,13.95
2022-10-12T03:07:31.662Z,16.40
2022-10-12T03:08:33.489Z,15.02
2022-10-12T03:09:35.116Z,13.77
2022-10-12T03:10:37.106Z,14.02
2022-10-12T03:11:44.146Z,14.88
2022-10-12T03:12:49.990Z,14.50
2022-10-12T03:13:53.965Z,15.40
2022-10-12T03:14:55.913Z,14.30
2022-10-12T03:16:05.131Z,13.88
2022-10-12T03:17:08.245Z,14.32
2022-10-12T03:18:10.060Z,13.27
2022-10-12T03:19:14.774Z,15.00
2022-10-12T03:20:17.768Z,15.40
2022-10-12T03:21:20.440Z,14.90
2022-10-12T03:22:23.205Z,13.98
2022-10-12T03:23:26.390Z,14.70
2022-10-12T03:24:30.288Z,14.85
2022-10-12T03:25:32.453Z,15.77
2022-10-12T03:26:34.583Z,14.48
2022-10-12T03:27:36.584Z,15.13
2022-10-12T03:28:38.854Z,16.03
2022-10-12T03:29:41.500Z,15.77
2022-10-12T03:30:44.365Z,15.30
2022-10-12T03:31:46.275Z,17.20
2022-10-12T03:32:48.155Z,14.40
2022-10-12T03:33:50.164Z,15.25
2022-10-12T03:34:52.999Z,15.52
2022-10-12T03:35:54.665Z,14.80
2022-10-12T03:36:56.256Z,14.03
2022-10-12T03:37:58.325Z,15.25
2022-10-12T03:39:03.080Z,14.70
2022-10-12T03:40:05.598Z,16.00
2022-10-12T03:41:07.804Z,20.50
2022-10-12T03:42:09.858Z,21.80
2022-10-12T03:43:11.889Z,20.15
2022-10-12T03:44:13.551Z,20.20
2022-10-12T03:45:15.702Z,22.20
2022-10-12T03:46:18.777Z,22.53
2022-10-12T03:47:20.476Z,24.27
2022-10-12T03:48:22.764Z,25.47
2022-10-12T03:49:24.518Z,22.77
2022-10-12T03:50:26.368Z,22.70
2022-10-12T03:51:27.964Z,22.73
2022-10-12T03:52:29.768Z,23.08
2022-10-12T03:53:34.997Z,23.90
2022-10-12T03:54:37.601Z,22.55
2022-10-12T03:55:39.205Z,20.80
2022-10-12T03:56:42.738Z,22.90
2022-10-12T03:57:45.772Z,24.93
2022-10-12T03:58:47.773Z,24.67
2022-10-12T03:59:52.186Z,23.83
2022-10-12T04:00:55.438Z,23.10
2022-10-12T04:01:59.774Z,24.45
2022-10-12T04:03:02.494Z,24.10
2022-10-12T04:04:04.682Z,25.20
2022-10-12T04:05:06.883Z,25.77
2022-10-12T04:06:12.224Z,26.20
2022-10-12T04:07:14.675Z,22.83
2022-10-12T04:08:16.468Z,22.90
2022-10-12T04:09:18.300Z,24.27
2022-10-12T04:10:20.266Z,26.33
2022-10-12T04:11:23.345Z,23.02
2022-10-12T04:12:25.379Z,22.63
2022-10-12T04:13:30.307Z,23.80
2022-10-12T04:14:33.822Z,23.30
2022-10-12T04:15:35.846Z,20.93
2022-10-12T04:16:38.205Z,22.75
2022-10-12T04:17:40.710Z,23.83
2022-10-12T04:18:45.647Z,22.15
2022-10-12T04:19:47.833Z,24.00
2022-10-12T04:20:50.104Z,23.47
2022-10-12T04:21:54.108Z,22.27
2022-10-12T04:22:56.019Z,23.43
2022-10-12T04:23:58.320Z,23.30
2022-10-12T04:25:00.006Z,21.90
2022-10-12T04:26:02.568Z,22.00
2022-10-12T04:27:07.216Z,20.37
2022-10-12T04:28:10.438Z,22.90
2022-10-12T04:29:13.890Z,23.08
2022-10-12T04:30:17.648Z,22.80
2022-10-12T04:31:19.254Z,23.50
2022-10-12T04:32:21.988Z,21.83
2022-10-12T04:33:23.670Z,24.00
2022-10-12T04:34:25.301Z,24.13
2022-10-12T04:35:28.003Z,24.07
2022-10-12T04:36:29.625Z,24.07
2022-10-12T04:37:32.640Z,25.27
2022-10-12T04:38:34.235Z,25.88
2022-10-12T04:39:37.522Z,24.92
2022-10-12T04:40:39.424Z,25.35
2022-10-12T04:41:41.507Z,24.50
2022-10-12T04:42:45.637Z,23.70
2022-10-12T04:43:48.269Z,24.65
2022-10-12T04:44:49.953Z,24.60
2022-10-12T04:45:59.776Z,23.57
2022-10-12T04:47:07.209Z,23.90
2022-10-12T04:48:09.547Z,25.63
2022-10-12T04:49:14.048Z,25.02
2022-10-12T04:50:16.242Z,24.20
2022-10-12T04:51:17.836Z,25.93
2022-10-12T04:52:20.035Z,27.00
2022-10-12T04:53:24.566Z,25.93
2022-10-12T04:54:26.278Z,26.73
2022-10-12T04:55:28.141Z,26.58
2022-10-12T04:56:29.903Z,26.55
2022-10-12T04:57:31.721Z,25.50
2022-10-12T04:58:34.809Z,25.25
2022-10-12T04:59:36.415Z,24.93
2022-10-12T05:00:41.044Z,24.45
2022-10-12T05:01:43.180Z,25.27
2022-10-12T05:02:45.719Z,23.60
2022-10-12T05:03:47.558Z,23.25
2022-10-12T05:04:49.490Z,23.33
2022-10-12T05:05:52.174Z,21.65
2022-10-12T05:06:55.616Z,23.77
2022-10-12T05:07:59.303Z,19.20
2022-10-12T05:09:00.970Z,21.10
2022-10-12T05:10:02.853Z,21.10
2022-10-12T05:11:04.918Z,19.87
2022-10-12T05:12:06.856Z,20.20
2022-10-12T05:13:08.594Z,20.60
2022-10-12T05:14:12.167Z,21.45
2022-10-12T05:15:14.352Z,21.27
2022-10-12T05:16:16.529Z,21.97
2022-10-12T05:17:18.424Z,23.05
2022-10-12T05:18:20.090Z,22.67
2022-10-12T05:19:22.732Z,22.50
2022-10-12T05:20:24.813Z,20.00
2022-10-12T05:21:27.455Z,19.57
2022-10-12T05:22:29.109Z,19.07
2022-10-12T05:23:31.317Z,19.38
2022-10-12T05:24:34.065Z,18.60
2022-10-12T05:25:37.188Z,19.63
2022-10-12T05:26:39.058Z,18.83
2022-10-12T05:27:41.174Z,18.50
2022-10-12T05:28:43.185Z,18.75
2022-10-12T05:29:45.193Z,17.85
2022-10-12T05:30:50.568Z,17.95
2022-10-12T05:31:52.312Z,17.27
2022-10-12T05:32:55.550Z,17.83
2022-10-12T05:33:57.275Z,16.40
2022-10-12T05:34:59.410Z,17.13
2022-10-12T05:36:01.172Z,17.27
2022-10-12T05:37:03.194Z,22.30
2022-10-12T05:38:05.179Z,19.30
2022-10-12T05:39:07.128Z,18.90
2022-10-12T05:40:09.482Z,22.25
2022-10-12T05:41:11.253Z,19.50
2022-10-12T05:42:13.991Z,19.40
2022-10-12T05:43:15.717Z,19.00
2022-10-12T05:44:17.290Z,20.20
2022-10-12T05:45:19.847Z,18.23
2022-10-12T05:46:23.008Z,19.70
2022-10-12T05:47:24.708Z,19.70
2022-10-12T05:48:26.715Z,21.67
2022-10-12T05:49:31.460Z,21.90
2022-10-12T05:50:33.438Z,21.17
2022-10-12T05:51:35.551Z,20.80
2022-10-12T05:52:37.741Z,23.23
2022-10-12T05:53:39.544Z,21.67
2022-10-12T05:54:41.379Z,20.17
2022-10-12T05:56:00.740Z,20.10
2022-10-12T05:57:04.015Z,22.42
2022-10-12T05:58:06.665Z,20.73
2022-10-12T05:59:10.878Z,19.17
2022-10-12T06:00:13.190Z,20.20
2022-10-12T06:01:14.941Z,21.87
2022-10-12T06:02:18.786Z,20.87
2022-10-12T06:03:25.968Z,20.60
2022-10-12T06:04:28.217Z,21.20
2022-10-12T06:05:29.858Z,21.43
2022-10-12T06:06:31.856Z,20.20
2022-10-12T06:07:33.457Z,21.43
2022-10-12T06:08:35.380Z,18.95
2022-10-12T06:09:39.747Z,20.30
2022-10-12T06:10:47.548Z,19.97
2022-10-12T06:11:49.534Z,21.20
2022-10-12T06:12:51.120Z,22.77
2022-10-12T06:13:54.445Z,22.25
2022-10-12T06:14:56.339Z,21.50
2022-10-12T06:15:58.522Z,20.27
2022-10-12T06:17:01.230Z,20.38
2022-10-12T06:18:03.107Z,21.47
2022-10-12T06:19:06.569Z,21.97
2022-10-12T06:20:09.085Z,23.80
2022-10-12T06:22:34.565Z,24.53
2022-10-12T06:23:37.767Z,26.43
2022-10-12T06:24:40.683Z,30.10
2022-10-12T06:25:46.144Z,25.03
2022-10-12T06:26:48.220Z,23.03
2022-10-12T06:27:50.137Z,21.97
2022-10-12T06:28:52.057Z,21.33
2022-10-12T06:29:53.998Z,22.10
2022-10-12T06:30:59.717Z,23.20
2022-10-12T06:32:01.530Z,21.17
2022-10-12T06:33:03.814Z,21.97
2022-10-12T06:34:06.754Z,20.80
2022-10-12T06:35:09.145Z,21.10
2022-10-12T06:36:11.152Z,26.00
2022-10-12T06:37:37.193Z,20.90
2022-10-12T06:38:35.303Z,18.90
2022-10-12T06:39:37.367Z,18.80
2022-10-12T06:40:38.971Z,17.90
2022-10-12T06:41:40.953Z,18.10
2022-10-12T06:42:43.876Z,15.40
2022-10-12T06:43:45.550Z,15.83
2022-10-12T06:44:48.369Z,15.43
2022-10-12T06:45:50.666Z,17.63
2022-10-12T06:46:52.337Z,15.60
2022-10-12T06:47:54.108Z,16.73
2022-10-12T06:48:55.767Z,15.00
2022-10-12T06:49:57.502Z,14.40
2022-10-12T06:51:01.296Z,16.93
2022-10-12T06:52:04.531Z,14.97
2022-10-12T06:53:07.446Z,16.17
2022-10-12T06:54:09.595Z,16.70
2022-10-12T06:55:11.526Z,15.93
2022-10-12T06:56:13.368Z,16.60
2022-10-12T06:57:15.059Z,18.37
2022-10-12T06:58:17.845Z,18.80
2022-10-12T06:59:20.266Z,18.13
2022-10-12T07:00:22.321Z,18.73
2022-10-12T07:01:24.699Z,19.90
2022-10-12T07:02:26.283Z,17.97
2022-10-12T07:03:27.835Z,19.10
2022-10-12T07:04:29.933Z,19.83
2022-10-12T07:05:31.994Z,17.27
2022-10-12T07:06:34.129Z,18.07
2022-10-12T07:07:37.236Z,18.17
2022-10-12T07:08:41.074Z,16.97
2022-10-12T07:09:42.664Z,17.17
2022-10-12T07:10:44.589Z,19.30
2022-10-12T07:11:46.476Z,18.87
2022-10-12T07:12:48.131Z,19.50
2022-10-12T07:13:49.705Z,17.93
2022-10-12T07:14:51.344Z,18.57
2022-10-12T07:15:53.021Z,16.27
2022-10-12T07:16:55.615Z,18.87
2022-10-12T07:17:57.769Z,18.33
2022-10-12T07:18:59.735Z,17.33
2022-10-12T07:20:02.819Z,17.80
2022-10-12T07:21:04.682Z,16.93
2022-10-12T07:22:06.430Z,16.83
2022-10-12T07:23:08.193Z,18.00
2022-10-12T07:24:13.211Z,19.87
2022-10-12T07:25:15.143Z,20.00
2022-10-12T07:26:17.048Z,19.03
2022-10-12T07:27:19.885Z,19.90
2022-10-12T07:28:22.203Z,17.10
2022-10-12T07:29:24.846Z,18.73
2022-10-12T07:30:26.499Z,20.93
2022-10-12T07:31:28.278Z,20.50
2022-10-12T07:32:30.133Z,18.37
2022-10-12T07:33:38.500Z,19.60
2022-10-12T07:34:40.491Z,22.23
2022-10-12T07:36:03.216Z,20.77
2022-10-12T07:37:04.147Z,19.40
2022-10-12T07:38:06.014Z,19.27
2022-10-12T07:39:07.770Z,19.50
2022-10-12T07:40:11.241Z,20.47
2022-10-12T07:41:13.568Z,22.43
2022-10-12T07:42:19.245Z,21.43
2022-10-12T07:43:21.620Z,20.37
2022-10-12T07:44:24.736Z,20.60
2022-10-12T07:45:29.309Z,20.57
2022-10-12T07:46:30.927Z,19.27
2022-10-12T07:47:36.133Z,20.17
2022-10-12T07:48:45.631Z,19.53
2022-10-12T07:49:50.674Z,21.20
2022-10-12T07:50:52.298Z,17.67
2022-10-12T07:51:53.947Z,19.60
2022-10-12T07:52:55.555Z,19.20
2022-10-12T07:54:00.965Z,20.40
2022-10-12T07:55:02.959Z,20.50
2022-10-12T07:56:07.257Z,18.53
2022-10-12T07:57:08.818Z,18.63
2022-10-12T07:58:10.434Z,18.77
2022-10-12T07:59:12.256Z,19.07
2022-10-12T08:00:15.999Z,19.03
2022-10-12T08:01:19.490Z,19.40
2022-10-12T08:02:22.029Z,19.83
2022-10-12T08:03:23.973Z,19.60
2022-10-12T08:04:25.622Z,20.67
2022-10-12T08:05:28.619Z,19.50
2022-10-12T08:06:34.036Z,18.73
2022-10-12T08:07:36.222Z,17.50
2022-10-12T08:08:39.809Z,17.07
2022-10-12T08:09:43.211Z,17.57
2022-10-12T08:10:45.747Z,19.93
2022-10-12T08:11:47.306Z,18.80
2022-10-12T08:12:52.080Z,18.33
2022-10-12T08:13:54.042Z,19.23
2022-10-12T08:14:56.529Z,18.50
2022-10-12T08:16:00.010Z,19.10
2022-10-12T08:17:03.091Z,18.43
2022-10-12T08:18:04.748Z,19.47
2022-10-12T08:19:06.578Z,17.77
2022-10-12T08:20:08.930Z,19.60
2022-10-12T08:21:14.957Z,18.90
2022-10-12T08:22:16.587Z,18.63
2022-10-12T08:23:18.667Z,17.90
2022-10-12T08:24:20.482Z,18.20
2022-10-12T08:25:22.656Z,18.97
2022-10-12T08:26:27.486Z,17.60
2022-10-12T08:27:32.128Z,19.23
2022-10-12T08:28:34.351Z,17.87
2022-10-12T08:29:36.055Z,19.67
2022-10-12T08:30:38.932Z,18.33
2022-10-12T08:31:40.765Z,18.73
2022-10-12T08:32:44.672Z,19.70
2022-10-12T08:33:47.549Z,19.20
2022-10-12T08:34:49.421Z,19.63
2022-10-12T08:35:51.100Z,20.27
2022-10-12T08:36:53.466Z,19.73
2022-10-12T08:37:55.804Z,18.63
2022-10-12T08:38:57.762Z,17.50
2022-10-12T08:40:03.639Z,18.53
2022-10-12T08:41:11.755Z,17.50
2022-10-12T08:42:32.253Z,18.40
2022-10-12T08:43:52.764Z,18.03
2022-10-12T08:45:06.572Z,17.00
2022-10-12T08:46:08.724Z,16.30
2022-10-12T08:47:22.320Z,15.80
2022-10-12T08:48:40.221Z,16.23
2022-10-12T08:49:49.417Z,16.23
2022-10-12T08:51:03.026Z,15.67
2022-10-12T08:52:10.039Z,17.20
2022-10-12T08:53:57.001Z,16.43
2022-10-12T08:55:04.655Z,14.80
2022-10-12T08:56:06.810Z,14.47
2022-10-12T08:57:19.189Z,16.30
2022-10-12T08:58:36.877Z,15.50
2022-10-12T08:59:38.562Z,14.23
2022-10-12T09:00:42.607Z,15.33
2022-10-12T09:01:56.499Z,15.73
2022-10-12T09:03:00.832Z,15.20
2022-10-12T09:04:14.797Z,15.30
2022-10-12T09:05:27.970Z,15.67
2022-10-12T09:07:11.809Z,16.17
2022-10-12T09:08:46.018Z,16.70
2022-10-12T09:10:19.247Z,16.43
2022-10-12T09:11:55.247Z,16.13
2022-10-12T09:13:39.731Z,14.27
2022-10-12T09:14:43.695Z,14.30
2022-10-12T09:16:17.322Z,13.30
2022-10-12T09:17:30.414Z,15.43
2022-10-12T09:18:42.929Z,15.00
2022-10-12T09:19:44.847Z,16.57
2022-10-12T09:20:53.697Z,16.50
2022-10-12T09:21:57.063Z,15.80
2022-10-12T09:23:23.772Z,15.60
2022-10-12T09:24:33.151Z,16.23
2022-10-12T09:25:37.475Z,16.20
2022-10-12T09:26:40.751Z,15.10
2022-10-12T09:27:46.054Z,14.57
2022-10-12T09:28:59.073Z,18.07
2022-10-12T09:30:04.796Z,16.53
2022-10-12T09:31:09.921Z,14.90
2022-10-12T09:32:23.551Z,14.97
2022-10-12T09:33:39.104Z,15.43
2022-10-12T09:34:41.315Z,15.40
2022-10-12T09:35:46.253Z,15.37
2022-10-12T09:36:47.933Z,15.60
2022-10-12T09:37:53.672Z,16.87
2022-10-12T09:38:57.449Z,14.50
2022-10-12T09:39:59.861Z,16.03
2022-10-12T09:41:02.412Z,16.83
2022-10-12T09:42:04.414Z,15.77
2022-10-12T09:43:07.698Z,18.60
2022-10-12T09:44:22.357Z,16.90
2022-10-12T09:45:25.059Z,16.30
2022-10-12T09:46:38.195Z,17.00
2022-10-12T09:47:40.235Z,14.87
2022-10-12T09:49:08.664Z,14.40
2022-10-12T09:50:10.569Z,15.40
2022-10-12T09:51:16.621Z,15.43
2022-10-12T09:52:22.883Z,14.33
2022-10-12T09:53:57.601Z,17.47
2022-10-12T09:55:20.514Z,14.67
2022-10-12T09:56:26.387Z,14.80
2022-10-12T09:57:32.112Z,15.97
2022-10-12T09:59:04.563Z,16.23
2022-10-12T10:00:26.365Z,17.80
2022-10-12T10:01:30.577Z,15.90
2022-10-12T10:02:34.817Z,15.13
2022-10-12T10:03:37.381Z,17.07
2022-10-12T10:04:40.128Z,15.37
2022-10-12T10:05:41.627Z,14.90
2022-10-12T10:06:51.033Z,15.97
2022-10-12T10:07:53.528Z,16.87
2022-10-12T10:08:56.775Z,16.97
2022-10-12T10:10:11.151Z,16.03
2022-10-12T10:11:24.084Z,14.87
2022-10-12T10:12:29.133Z,15.37
2022-10-12T10:13:35.907Z,15.37
2022-10-12T10:14:39.568Z,14.50
2022-10-12T10:15:46.659Z,14.27
2022-10-12T10:16:54.860Z,13.10
2022-10-12T10:18:02.135Z,14.10
2022-10-12T10:19:04.504Z,14.10
2022-10-12T10:20:25.306Z,12.60
2022-10-12T10:21:38.506Z,13.63
2022-10-12T10:22:48.517Z,12.23
2022-10-12T10:23:57.755Z,13.77
2022-10-12T10:25:04.098Z,12.70
2022-10-12T10:26:12.322Z,13.60
2022-10-12T10:27:47.871Z,13.10
2022-10-12T10:28:57.319Z,11.20
2022-10-12T10:30:25.519Z,12.40
2022-10-12T10:31:30.634Z,11.30
2022-10-12T10:32:39.621Z,11.40
2022-10-12T10:33:42.647Z,11.37
2022-10-12T10:34:46.416Z,11.00
2022-10-12T10:36:24.435Z,10.20
2022-10-12T10:37:26.220Z,11.40
2022-10-12T10:38:31.733Z,10.37
2022-10-12T10:39:46.558Z,10.97
2022-10-12T10:41:08.379Z,10.53
2022-10-12T10:42:12.025Z,10.00
2022-10-12T10:43:24.638Z,9.73
2022-10-12T10:44:33.078Z,10.50
2022-10-12T10:45:48.931Z,9.03
2022-10-12T10:46:52.183Z,8.90
2022-10-12T10:48:01.593Z,8.57
2022-10-12T10:49:08.770Z,8.90
2022-10-12T10:50:27.658Z,6.93
2022-10-12T10:51:45.242Z,9.10
2022-10-12T10:52:56.322Z,8.90
2022-10-12T10:54:14.482Z,8.73
2022-10-12T10:55:29.786Z,8.13
2022-10-12T10:56:32.899Z,9.00
2022-10-12T10:57:39.521Z,8.37
2022-10-12T10:58:46.899Z,8.30
2022-10-12T11:00:19.483Z,9.27
2022-10-12T11:01:39.277Z,9.00
2022-10-12T11:03:14.245Z,9.27
2022-10-12T11:04:40.139Z,8.00
2022-10-12T11:05:51.141Z,8.73
2022-10-12T11:06:59.208Z,9.07
2022-10-12T11:08:18.266Z,8.73
2022-10-12T11:09:25.752Z,6.97
2022-10-12T11:10:58.345Z,8.70
2022-10-12T11:12:08.666Z,7.87
2022-10-12T11:13:32.708Z,6.60
2022-10-12T11:14:40.195Z,8.20
2022-10-12T11:15:52.090Z,8.10
2022-10-12T11:17:03.961Z,7.20
2022-10-12T11:18:17.531Z,6.10
2022-10-12T11:19:37.321Z,5.10
2022-10-12T11:20:48.286Z,5.90
2022-10-12T11:22:04.545Z,7.37
2022-10-12T11:23:35.076Z,8.23
2022-10-12T11:25:06.125Z,6.07
2022-10-12T11:26:16.613Z,6.97
2022-10-12T11:27:27.327Z,6.60
2022-10-12T11:28:32.846Z,7.15
2022-10-12T11:29:38.349Z,6.43
2022-10-12T11:30:45.789Z,6.75
2022-10-12T11:31:56.787Z,6.93
2022-10-12T11:33:07.467Z,7.05
2022-10-12T11:34:16.931Z,7.00
2022-10-12T11:35:32.055Z,7.88
2022-10-12T11:36:44.252Z,7.28
2022-10-12T11:38:11.610Z,7.35
2022-10-12T11:39:24.325Z,7.85
2022-10-12T11:41:09.339Z,7.50
2022-10-12T11:42:31.684Z,7.05
2022-10-12T11:43:47.311Z,6.00
2022-10-12T11:44:50.240Z,8.20
2022-10-12T11:45:56.909Z,7.38
2022-10-12T11:47:10.240Z,7.87
2022-10-12T11:48:17.887Z,6.90
2022-10-12T11:49:42.283Z,8.00
2022-10-12T11:50:49.352Z,6.73
2022-10-12T11:51:54.965Z,7.40
2022-10-12T11:53:00.994Z,7.53
2022-10-12T11:54:25.036Z,7.93
2022-10-12T11:55:54.781Z,6.20
2022-10-12T11:57:02.284Z,6.90
2022-10-12T11:58:15.245Z,6.43
2022-10-12T11:59:31.031Z,7.63
2022-10-12T12:00:38.664Z,6.90
2022-10-12T12:02:14.825Z,6.30
2022-10-12T12:03:27.054Z,7.57
2022-10-12T12:04:42.578Z,7.37
2022-10-12T12:05:45.374Z,6.78
2022-10-12T12:07:14.775Z,6.23
2022-10-12T12:08:45.002Z,6.85
2022-10-12T12:09:50.777Z,6.90
2022-10-12T12:11:05.088Z,6.43
2022-10-12T12:12:18.511Z,6.17
2022-10-12T12:13:27.201Z,6.00
2022-10-12T12:14:28.992Z,6.70
2022-10-12T12:15:32.504Z,5.55
2022-10-12T12:16:42.569Z,6.60
2022-10-12T12:18:09.064Z,6.00
2022-10-12T12:19:38.519Z,6.90
2022-10-12T12:20:47.000Z,6.78
2022-10-12T12:22:20.854Z,7.28
2022-10-12T12:23:55.337Z,6.70
2022-10-12T12:25:13.189Z,5.40
2022-10-12T12:26:19.608Z,5.75
2022-10-12T12:27:23.213Z,6.90
2022-10-12T12:28:26.342Z,5.90
2022-10-12T12:29:29.830Z,5.40
2022-10-12T12:30:39.258Z,6.28
2022-10-12T12:31:42.846Z,6.20
2022-10-12T12:32:51.358Z,5.40
2022-10-12T12:34:01.756Z,5.57
2022-10-12T12:35:03.906Z,6.60
2022-10-12T12:36:13.658Z,7.00
2022-10-12T12:37:24.972Z,6.40
2022-10-12T12:38:32.490Z,6.72
2022-10-12T12:39:36.797Z,5.43
2022-10-12T12:40:40.691Z,6.07
2022-10-12T12:41:56.353Z,6.05
2022-10-12T12:43:30.620Z,6.03
2022-10-12T12:44:36.931Z,5.03
2022-10-12T12:45:40.998Z,7.03
2022-10-12T12:46:54.345Z,5.57
2022-10-12T12:47:55.993Z,5.55
2022-10-12T12:48:59.787Z,5.30
2022-10-12T12:50:05.868Z,6.00
2022-10-12T12:51:24.269Z,5.30
2022-10-12T12:52:34.662Z,5.18
2022-10-12T12:53:50.575Z,5.47
2022-10-12T12:55:04.378Z,5.47
2022-10-12T12:56:16.856Z,5.60
2022-10-12T12:57:46.196Z,6.53
2022-10-12T12:59:19.336Z,4.57
2022-10-12T13:00:25.917Z,3.88
2022-10-12T13:01:46.980Z,5.23
2022-10-12T13:03:25.670Z,5.45
2022-10-12T13:04:42.250Z,6.47
2022-10-12T13:05:44.840Z,5.32
2022-10-12T13:07:12.720Z,5.88
2022-10-12T13:08:35.459Z,4.90
2022-10-12T13:10:02.093Z,4.72
2022-10-12T13:11:46.571Z,5.65
2022-10-12T13:13:18.659Z,5.55
2022-10-12T13:14:51.941Z,4.97
2022-10-12T13:17:29.995Z,4.88
2022-10-12T13:18:45.907Z,5.00
2022-10-12T13:19:47.933Z,5.22
2022-10-12T13:20:50.493Z,4.77
2022-10-12T13:21:55.595Z,5.40
2022-10-12T13:23:02.766Z,5.18
2022-10-12T13:24:08.615Z,5.35
2022-10-12T13:25:17.675Z,4.75
2022-10-12T13:26:25.294Z,6.15
2022-10-12T13:27:46.875Z,7.55
2022-10-12T13:28:49.799Z,6.10
2022-10-12T13:29:59.502Z,5.75
2022-10-12T13:31:09.878Z,5.25
2022-10-12T13:32:28.119Z,5.50
2022-10-12T13:33:33.819Z,4.68
2022-10-12T13:34:41.466Z,4.50
2022-10-12T13:35:48.777Z,5.30
2022-10-12T13:37:00.624Z,5.10
2022-10-12T13:38:24.046Z,4.47
2022-10-12T13:39:26.662Z,5.05
2022-10-12T13:40:40.543Z,4.80
2022-10-12T13:41:43.803Z,4.63
2022-10-12T13:42:45.613Z,5.30
2022-10-12T13:44:00.924Z,5.18
2022-10-12T13:45:10.750Z,4.47
2022-10-12T13:46:36.063Z,5.38
2022-10-12T13:47:43.383Z,5.15
2022-10-12T13:49:05.182Z,5.78
2022-10-12T13:50:17.292Z,5.28
2022-10-12T13:51:27.677Z,5.10
2022-10-12T13:52:33.716Z,4.53
2022-10-12T13:53:39.806Z,4.60
2022-10-12T13:54:49.725Z,4.90
2022-10-12T13:56:05.578Z,5.63
2022-10-12T13:57:24.100Z,4.45
2022-10-12T13:58:31.021Z,5.25
2022-10-12T13:59:38.664Z,4.37
2022-10-12T14:00:47.331Z,5.03
2022-10-12T14:02:03.238Z,5.03
2022-10-12T14:03:06.377Z,5.75
2022-10-12T14:04:13.374Z,5.07
2022-10-12T14:05:24.283Z,5.73
2022-10-12T14:06:40.292Z,4.93
2022-10-12T14:07:45.324Z,4.50
2022-10-12T14:08:47.543Z,4.67
2022-10-12T14:09:57.509Z,5.50
2022-10-12T14:11:00.249Z,5.70
2022-10-12T14:12:02.568Z,4.53
2022-10-12T14:13:05.973Z,5.20
2022-10-12T14:14:21.016Z,5.77
2022-10-12T14:15:26.838Z,5.50
2022-10-12T14:16:30.020Z,5.67
2022-10-12T14:17:33.382Z,5.40
2022-10-12T14:18:42.688Z,5.60
2022-10-12T14:19:48.092Z,6.40
2022-10-12T14:20:49.891Z,5.70
2022-10-12T14:21:53.063Z,5.57
2022-10-12T14:22:57.532Z,6.13
2022-10-12T14:24:07.010Z,5.90
2022-10-12T14:25:09.665Z,6.10
2022-10-12T14:26:23.034Z,6.60
2022-10-12T14:27:28.848Z,6.80
2022-10-12T14:28:35.366Z,6.00
2022-10-12T14:29:44.234Z,6.67
2022-10-12T14:30:53.547Z,5.90
2022-10-12T14:31:58.014Z,6.47
2022-10-12T14:33:17.010Z,7.07
2022-10-12T14:34:45.361Z,6.13
2022-10-12T14:35:48.945Z,6.60
2022-10-12T14:37:25.125Z,6.37
2022-10-12T14:38:46.078Z,6.03
2022-10-12T14:39:50.427Z,6.63
2022-10-12T14:40:52.448Z,6.40